Time;durP1;ratioP1;P1;durP2;ratioP2;P2;SDS_P1;SDS_P2;PMS_P1;PMS_P2;Temp;Humidity;BMP_temperature;BMP_pressure;BME280_temperature;BME280_humidity;BME280_pressure;Samples;Min_cycle;Max_cycle;Signal;HPM_P1;HPM_P2
2023/09/15 00:02:05;;;;;;;18.50;10.32;;;;;;;;;;10381732;28;20462;-74
2023/09/15 00:07:05;;;;;;;17.40;11.60;;;;;;;;;;10396761;28;20026;-73
2023/09/15 00:12:07;;;;;;;19.02;10.98;;;;;;;;;;10390856;28;20470;-74
2023/09/15 00:17:07;;;;;;;16.58;10.13;;;;;;;;;;10394534;28;20038;-75
2023/09/15 00:22:08;;;;;;;14.75;10.70;;;;;;;;;;10392443;28;20429;-73
2023/09/15 00:27:09;;;;;;;18.45;10.57;;;;;;;;;;10385739;28;20025;-73
2023/09/15 00:32:10;;;;;;;17.90;11.45;;;;;;;;;;10402330;28;20025;-81
2023/09/15 00:37:10;;;;;;;16.83;10.15;;;;;;;;;;10423937;28;20053;-77
2023/09/15 00:42:11;;;;;;;15.65;10.18;;;;;;;;;;10445160;28;20040;-73
2023/09/15 00:47:11;;;;;;;19.30;10.80;;;;;;;;;;10445663;28;20009;-80
2023/09/15 00:52:11;;;;;;;18.25;10.07;;;;;;;;;;10451844;28;20198;-73
2023/09/15 00:57:13;;;;;;;15.53;10.60;;;;;;;;;;10455283;28;20036;-75
2023/09/15 01:02:13;;;;;;;17.38;9.68;;;;;;;;;;10470003;28;20047;-74
2023/09/15 01:07:14;;;;;;;12.35;9.77;;;;;;;;;;10445847;28;20020;-78
2023/09/15 01:12:16;;;;;;;18.20;11.25;;;;;;;;;;10464765;28;20804;-79
2023/09/15 01:17:19;;;;;;;28.13;12.13;;;;;;;;;;10468944;28;20078;-80
2023/09/15 01:22:23;;;;;;;13.98;10.25;;;;;;;;;;10467101;28;20051;-78
2023/09/15 01:27:30;;;;;;;21.25;10.95;;;;;;;;;;10466680;28;20117;-81
2023/09/15 01:32:33;;;;;;;21.98;10.18;;;;;;;;;;10451056;28;20017;-69
2023/09/15 01:37:34;;;;;;;18.35;10.20;;;;;;;;;;10446222;28;20148;-76
2023/09/15 01:42:39;;;;;;;19.70;11.18;;;;;;;;;;10423253;28;20025;-76
2023/09/15 01:47:40;;;;;;;22.20;11.13;;;;;;;;;;10424877;28;20028;-76
2023/09/15 01:52:41;;;;;;;20.48;11.77;;;;;;;;;;10429802;28;20124;-74
2023/09/15 01:57:41;;;;;;;16.23;9.80;;;;;;;;;;10414509;28;20025;-75
2023/09/15 02:02:41;;;;;;;14.25;9.98;;;;;;;;;;10394642;28;20095;-77
2023/09/15 02:07:42;;;;;;;14.60;10.95;;;;;;;;;;10411311;28;20036;-78
2023/09/15 02:12:42;;;;;;;14.75;11.52;;;;;;;;;;10429067;28;20025;-74
2023/09/15 02:17:44;;;;;;;20.37;10.00;;;;;;;;;;10397275;28;20025;-76
2023/09/15 02:22:44;;;;;;;16.95;11.05;;;;;;;;;;10422725;28;20029;-73
2023/09/15 02:27:45;;;;;;;20.42;11.55;;;;;;;;;;10408987;28;20406;-77
2023/09/15 02:32:46;;;;;;;15.45;10.95;;;;;;;;;;10393479;28;20112;-75
2023/09/15 02:37:46;;;;;;;18.95;11.70;;;;;;;;;;10415401;28;20049;-78
2023/09/15 02:42:46;;;;;;;19.35;12.65;;;;;;;;;;10427112;28;20056;-76
2023/09/15 02:47:48;;;;;;;19.92;12.00;;;;;;;;;;10428786;28;20014;-81
2023/09/15 02:52:49;;;;;;;23.63;12.38;;;;;;;;;;10427632;28;20048;-83
2023/09/15 02:57:50;;;;;;;21.35;11.65;;;;;;;;;;10438317;28;20548;-76
2023/09/15 03:02:51;;;;;;;17.50;11.18;;;;;;;;;;10408641;28;20127;-75
2023/09/15 03:07:51;;;;;;;15.32;11.80;;;;;;;;;;10440973;28;20370;-74
2023/09/15 03:12:51;;;;;;;17.90;12.40;;;;;;;;;;10437539;28;20025;-71
2023/09/15 03:17:51;;;;;;;17.23;11.48;;;;;;;;;;10427950;28;20516;-75
2023/09/15 03:22:52;;;;;;;23.25;12.10;;;;;;;;;;10427256;28;20448;-73
2023/09/15 03:27:53;;;;;;;19.23;11.90;;;;;;;;;;10425908;28;20881;-73
2023/09/15 03:32:53;;;;;;;18.15;11.65;;;;;;;;;;10426142;28;20115;-72
2023/09/15 03:37:54;;;;;;;18.30;11.67;;;;;;;;;;10423575;28;20144;-78
2023/09/15 03:42:55;;;;;;;24.88;12.52;;;;;;;;;;10439292;28;20299;-76
2023/09/15 03:47:55;;;;;;;16.25;10.77;;;;;;;;;;10417478;28;20067;-72
2023/09/15 03:52:55;;;;;;;15.40;11.73;;;;;;;;;;10429061;28;20075;-73
2023/09/15 03:57:56;;;;;;;15.00;10.32;;;;;;;;;;10427432;28;20175;-72
2023/09/15 04:02:56;;;;;;;19.58;11.00;;;;;;;;;;10425173;28;20409;-74
2023/09/15 04:07:56;;;;;;;15.50;10.18;;;;;;;;;;10420790;28;20032;-77
2023/09/15 04:13:00;;;;;;;18.02;10.25;;;;;;;;;;10448682;23;20497;-73
2023/09/15 04:23:42;;;;;;;17.23;9.90;;;;;;;;;;10431783;28;20049;-72
2023/09/15 04:28:42;;;;;;;15.02;10.32;;;;;;;;;;10403583;28;20509;-83
2023/09/15 04:33:45;;;;;;;16.77;10.70;;;;;;;;;;10399220;28;20075;-78
2023/09/15 04:38:45;;;;;;;15.75;10.27;;;;;;;;;;10393414;28;20497;-80
2023/09/15 04:43:49;;;;;;;17.77;10.32;;;;;;;;;;10410972;28;20830;-75
2023/09/15 04:48:49;;;;;;;14.75;9.23;;;;;;;;;;10409603;28;20018;-79
2023/09/15 04:53:50;;;;;;;20.98;9.10;;;;;;;;;;10392807;28;20018;-81
2023/09/15 04:58:56;;;;;;;14.82;9.23;;;;;;;;;;10394480;28;20397;-81
2023/09/15 05:04:01;;;;;;;19.00;9.40;;;;;;;;;;10395104;28;20494;-72
2023/09/15 05:09:08;;;;;;;16.90;8.32;;;;;;;;;;10415761;28;20190;-81
2023/09/15 05:14:10;;;;;;;19.20;10.67;;;;;;;;;;10399894;28;20042;-83
2023/09/15 05:19:10;;;;;;;15.73;8.57;;;;;;;;;;10383855;28;20168;-80
2023/09/15 05:24:32;;;;;;;11.20;7.90;;;;;;;;;;10400716;28;20025;-79
2023/09/15 05:29:34;;;;;;;18.83;8.93;;;;;;;;;;10387694;28;20029;-80
2023/09/15 05:34:34;;;;;;;15.70;8.60;;;;;;;;;;10395240;28;20509;-80
2023/09/15 05:39:35;;;;;;;20.48;9.63;;;;;;;;;;10391061;28;20911;-74
2023/09/15 05:44:36;;;;;;;13.85;8.43;;;;;;;;;;10395219;28;20529;-79
2023/09/15 05:49:36;;;;;;;22.10;9.38;;;;;;;;;;10403114;28;20025;-79
2023/09/15 05:54:37;;;;;;;14.73;9.50;;;;;;;;;;10408089;28;20029;-74
2023/09/15 05:59:39;;;;;;;22.83;10.10;;;;;;;;;;10391808;28;20038;-82
2023/09/15 06:04:46;;;;;;;18.73;8.97;;;;;;;;;;10392787;28;20360;-81
2023/09/15 06:09:50;;;;;;;17.63;9.00;;;;;;;;;;10385288;28;20413;-77
2023/09/15 06:14:50;;;;;;;16.25;9.40;;;;;;;;;;10405271;28;20037;-80
2023/09/15 06:19:51;;;;;;;14.97;8.97;;;;;;;;;;10375681;28;20022;-80
2023/09/15 06:24:54;;;;;;;20.73;10.85;;;;;;;;;;10393629;28;20353;-76
2023/09/15 06:29:55;;;;;;;17.27;9.50;;;;;;;;;;10417119;28;20047;-79
2023/09/15 06:34:55;;;;;;;19.35;9.75;;;;;;;;;;10392703;28;20018;-80
2023/09/15 06:39:57;;;;;;;14.68;8.15;;;;;;;;;;10405290;28;20489;-80
2023/09/15 06:45:05;;;;;;;19.45;8.65;;;;;;;;;;10402792;28;20021;-71
2023/09/15 06:50:05;;;;;;;14.07;9.55;;;;;;;;;;10422405;28;20020;-74
2023/09/15 06:55:06;;;;;;;11.75;8.38;;;;;;;;;;10384204;28;20025;-77
2023/09/15 07:00:09;;;;;;;11.25;7.78;;;;;;;;;;10412353;28;20029;-75
2023/09/15 07:05:10;;;;;;;19.60;7.10;;;;;;;;;;10406692;28;20017;-79
2023/09/15 07:10:11;;;;;;;16.38;7.35;;;;;;;;;;10380073;28;20105;-79
2023/09/15 07:15:14;;;;;;;12.23;7.10;;;;;;;;;;10335825;28;20498;-81
2023/09/15 07:20:16;;;;;;;17.27;6.80;;;;;;;;;;10368984;28;20499;-83
2023/09/15 07:25:17;;;;;;;10.32;5.68;;;;;;;;;;10319826;28;20017;-82
2023/09/15 07:30:18;;;;;;;14.23;5.85;;;;;;;;;;10355153;28;20585;-85
2023/09/15 07:35:18;;;;;;;15.93;6.07;;;;;;;;;;10342996;28;20014;-79
2023/09/15 07:40:22;;;;;;;10.53;5.43;;;;;;;;;;10341025;28;20018;-75
2023/09/15 07:45:24;;;;;;;9.35;6.13;;;;;;;;;;10350265;28;20017;-78
2023/09/15 07:50:25;;;;;;;10.25;5.40;;;;;;;;;;10330714;28;20040;-82
2023/09/15 07:55:25;;;;;;;14.47;6.03;;;;;;;;;;10334282;28;20502;-82
2023/09/15 08:00:25;;;;;;;8.40;4.78;;;;;;;;;;10327596;28;20028;-78
2023/09/15 08:05:27;;;;;;;10.30;5.57;;;;;;;;;;10310740;28;20026;-78
2023/09/15 08:10:29;;;;;;;7.57;4.63;;;;;;;;;;10351431;28;20095;-79
2023/09/15 08:15:29;;;;;;;9.80;6.32;;;;;;;;;;10344977;28;20013;-78
2023/09/15 08:20:29;;;;;;;9.55;5.57;;;;;;;;;;10355745;28;20021;-79
2023/09/15 08:25:32;;;;;;;10.77;6.82;;;;;;;;;;10346043;28;20018;-78
2023/09/15 08:30:35;;;;;;;11.20;6.38;;;;;;;;;;10328786;28;20061;-78
2023/09/15 08:35:36;;;;;;;10.95;5.55;;;;;;;;;;10331186;28;20144;-76
2023/09/15 08:40:48;;;;;;;11.23;6.03;;;;;;;;;;10319868;28;20512;-79
2023/09/15 08:45:49;;;;;;;14.13;6.50;;;;;;;;;;10328553;28;20166;-78
2023/09/15 08:50:50;;;;;;;10.67;5.97;;;;;;;;;;10344681;28;20022;-80
2023/09/15 08:55:51;;;;;;;12.70;6.43;;;;;;;;;;10320375;28;20021;-83
2023/09/15 09:00:53;;;;;;;13.90;6.57;;;;;;;;;;10349430;28;20030;-81
2023/09/15 09:05:54;;;;;;;12.38;5.57;;;;;;;;;;10336867;28;20498;-77
2023/09/15 09:10:55;;;;;;;7.75;5.72;;;;;;;;;;10340441;28;20059;-76
2023/09/15 09:15:56;;;;;;;8.63;5.40;;;;;;;;;;10410578;28;20013;-83
2023/09/15 09:20:57;;;;;;;9.15;6.03;;;;;;;;;;10405890;28;20117;-84
2023/09/15 09:25:58;;;;;;;17.05;6.15;;;;;;;;;;10389474;28;20133;-75
2023/09/15 09:30:58;;;;;;;8.63;6.65;;;;;;;;;;10402730;28;20026;-77
2023/09/15 09:36:08;;;;;;;10.48;6.35;;;;;;;;;;10395161;28;20013;-81
2023/09/15 09:41:09;;;;;;;11.15;5.72;;;;;;;;;;10382356;28;21355;-78
2023/09/15 09:46:10;;;;;;;18.52;5.85;;;;;;;;;;10391124;28;20032;-78
2023/09/15 09:51:11;;;;;;;8.40;4.90;;;;;;;;;;10387026;28;20049;-79
2023/09/15 09:56:12;;;;;;;8.38;4.57;;;;;;;;;;10383250;28;20061;-78
2023/09/15 10:01:13;;;;;;;7.18;4.88;;;;;;;;;;10387888;28;20033;-77
2023/09/15 10:06:14;;;;;;;15.23;5.20;;;;;;;;;;10424407;28;20057;-78
2023/09/15 10:11:15;;;;;;;9.87;5.17;;;;;;;;;;10384837;28;20057;-72
2023/09/15 10:16:17;;;;;;;12.25;5.00;;;;;;;;;;10396782;28;20045;-80
2023/09/15 10:21:20;;;;;;;12.00;6.28;;;;;;;;;;10406143;28;20048;-75
2023/09/15 10:26:23;;;;;;;10.23;4.57;;;;;;;;;;10401584;28;20052;-79
2023/09/15 10:31:23;;;;;;;7.50;5.38;;;;;;;;;;10383525;28;20063;-75
2023/09/15 10:36:24;;;;;;;7.30;4.47;;;;;;;;;;10388031;28;20025;-85
2023/09/15 10:41:29;;;;;;;8.65;4.93;;;;;;;;;;10391578;28;20564;-75
2023/09/15 10:46:38;;;;;;;8.40;4.00;;;;;;;;;;10389860;28;20115;-79
2023/09/15 10:51:49;;;;;;;11.15;4.50;;;;;;;;;;10390927;28;20101;-81
2023/09/15 10:56:49;;;;;;;7.60;3.97;;;;;;;;;;10383696;28;20018;-80
2023/09/15 11:01:51;;;;;;;9.93;4.43;;;;;;;;;;10387097;28;20025;-74
2023/09/15 11:06:52;;;;;;;8.18;4.15;;;;;;;;;;10392083;28;20025;-78
2023/09/15 11:11:57;;;;;;;12.00;5.10;;;;;;;;;;10367594;28;20073;-82
2023/09/15 11:16:58;;;;;;;8.85;4.85;;;;;;;;;;10331256;28;20621;-78
2023/09/15 11:22:05;;;;;;;5.65;4.50;;;;;;;;;;10341431;28;20026;-81
2023/09/15 11:27:05;;;;;;;10.50;5.60;;;;;;;;;;10324393;28;20040;-81
2023/09/15 11:32:11;;;;;;;9.77;6.18;;;;;;;;;;10341340;28;20030;-82
2023/09/15 11:37:13;;;;;;;14.55;6.30;;;;;;;;;;10359254;28;20030;-77
2023/09/15 11:42:14;;;;;;;10.32;5.72;;;;;;;;;;10334476;28;20026;-80
2023/09/15 11:47:22;;;;;;;13.85;7.80;;;;;;;;;;10338190;28;20147;-83
2023/09/15 11:52:23;;;;;;;12.85;7.88;;;;;;;;;;10355809;28;20068;-81
2023/09/15 11:57:24;;;;;;;13.27;7.33;;;;;;;;;;10332503;28;20109;-79
2023/09/15 12:02:25;;;;;;;11.17;7.43;;;;;;;;;;10355102;28;20031;-77
2023/09/15 12:07:25;;;;;;;13.23;7.25;;;;;;;;;;10335878;28;20026;-77
2023/09/15 12:12:26;;;;;;;10.43;7.28;;;;;;;;;;10356382;28;20109;-76
2023/09/15 12:17:29;;;;;;;14.82;8.50;;;;;;;;;;10348581;28;20145;-78
2023/09/15 12:22:33;;;;;;;17.80;8.50;;;;;;;;;;10341579;28;20025;-73
2023/09/15 12:27:33;;;;;;;17.42;9.80;;;;;;;;;;10343900;28;20049;-76
2023/09/15 12:32:35;;;;;;;14.55;8.05;;;;;;;;;;10355370;28;20072;-72
2023/09/15 12:37:39;;;;;;;12.90;9.13;;;;;;;;;;10326729;28;20037;-77
2023/09/15 12:42:43;;;;;;;16.80;8.43;;;;;;;;;;10333982;28;20439;-75
2023/09/15 12:47:45;;;;;;;12.68;9.18;;;;;;;;;;10349819;28;20406;-78
2023/09/15 12:52:45;;;;;;;17.58;9.10;;;;;;;;;;10343406;28;20486;-80
2023/09/15 12:57:46;;;;;;;24.15;9.95;;;;;;;;;;10342299;28;20036;-76
2023/09/15 13:02:46;;;;;;;12.00;8.38;;;;;;;;;;10357788;28;20044;-80
2023/09/15 13:07:47;;;;;;;18.08;9.60;;;;;;;;;;10361333;28;20029;-79
2023/09/15 13:12:48;;;;;;;16.70;8.77;;;;;;;;;;10386642;28;20053;-77
2023/09/15 13:17:49;;;;;;;13.83;9.17;;;;;;;;;;10419276;28;20024;-78
2023/09/15 13:22:50;;;;;;;12.50;8.10;;;;;;;;;;10419561;28;20275;-83
2023/09/15 13:27:50;;;;;;;16.73;9.93;;;;;;;;;;10402736;28;20221;-78
2023/09/15 13:32:53;;;;;;;13.07;8.97;;;;;;;;;;10421647;28;20060;-80
2023/09/15 13:37:58;;;;;;;12.95;8.20;;;;;;;;;;10423004;28;20045;-79
2023/09/15 13:42:59;;;;;;;16.25;8.38;;;;;;;;;;10411946;28;20599;-78
2023/09/15 13:48:01;;;;;;;15.93;9.07;;;;;;;;;;10433338;28;20402;-74
2023/09/15 13:53:01;;;;;;;12.83;9.20;;;;;;;;;;10425277;28;20051;-72
2023/09/15 13:58:03;;;;;;;17.85;7.95;;;;;;;;;;10424473;28;20036;-77
2023/09/15 14:03:04;;;;;;;16.35;8.90;;;;;;;;;;10432233;28;20587;-78
2023/09/15 14:08:05;;;;;;;14.07;9.60;;;;;;;;;;10405145;28;20047;-76
2023/09/15 14:13:05;;;;;;;13.25;9.50;;;;;;;;;;10421604;28;20234;-76
2023/09/15 14:18:06;;;;;;;16.08;8.93;;;;;;;;;;10409471;28;20036;-79
2023/09/15 14:23:06;;;;;;;15.95;9.63;;;;;;;;;;10427186;28;20837;-80
2023/09/15 14:28:07;;;;;;;20.57;10.10;;;;;;;;;;10431133;28;20037;-78
2023/09/15 14:33:07;;;;;;;14.60;9.32;;;;;;;;;;10405494;28;20025;-77
2023/09/15 14:38:07;;;;;;;17.52;9.82;;;;;;;;;;10423032;28;20123;-79
2023/09/15 14:43:08;;;;;;;22.13;9.93;;;;;;;;;;10412713;28;20055;-77
2023/09/15 14:48:08;;;;;;;13.17;10.07;;;;;;;;;;10423451;28;20499;-79
2023/09/15 14:53:08;;;;;;;16.73;11.20;;;;;;;;;;10428271;28;20037;-77
2023/09/15 14:58:09;;;;;;;17.00;10.70;;;;;;;;;;10409834;28;20084;-77
2023/09/15 15:03:20;;;;;;;18.83;11.25;;;;;;;;;;10420021;28;20025;-80
2023/09/15 15:08:20;;;;;;;21.02;10.52;;;;;;;;;;10413708;28;20499;-78
2023/09/15 15:13:21;;;;;;;19.45;10.45;;;;;;;;;;10391461;28;20045;-77
2023/09/15 15:18:22;;;;;;;17.17;11.20;;;;;;;;;;10388506;28;20046;-77
2023/09/15 15:23:23;;;;;;;21.33;10.87;;;;;;;;;;10390488;28;20424;-78
2023/09/15 15:28:24;;;;;;;24.70;11.30;;;;;;;;;;10385353;28;20029;-80
2023/09/15 15:33:24;;;;;;;21.80;12.73;;;;;;;;;;10384922;28;20029;-81
2023/09/15 15:38:25;;;;;;;26.10;11.77;;;;;;;;;;10385542;28;20083;-80
2023/09/15 15:43:26;;;;;;;28.02;11.75;;;;;;;;;;10396266;28;20193;-78
2023/09/15 15:48:27;;;;;;;30.40;19.20;;;;;;;;;;10384214;28;20021;-82
2023/09/15 15:53:28;;;;;;;23.65;13.80;;;;;;;;;;10389187;28;20162;-75
2023/09/15 15:58:29;;;;;;;24.13;13.63;;;;;;;;;;10385049;28;20526;-79
2023/09/15 16:03:32;;;;;;;17.20;12.40;;;;;;;;;;10375443;28;20025;-77
2023/09/15 16:08:38;;;;;;;27.05;14.43;;;;;;;;;;10387057;28;20580;-81
2023/09/15 16:13:38;;;;;;;21.40;14.00;;;;;;;;;;10379306;28;20115;-79
2023/09/15 16:18:39;;;;;;;21.70;12.70;;;;;;;;;;10382317;28;20469;-76
2023/09/15 16:23:41;;;;;;;19.55;12.93;;;;;;;;;;10379556;28;20035;-79
2023/09/15 16:28:41;;;;;;;20.63;13.77;;;;;;;;;;10388219;28;20038;-79
2023/09/15 16:33:42;;;;;;;22.02;14.23;;;;;;;;;;10384075;28;20454;-78
2023/09/15 16:38:43;;;;;;;18.92;11.95;;;;;;;;;;10382232;28;20440;-78
2023/09/15 16:43:43;;;;;;;21.08;11.60;;;;;;;;;;10392419;28;20029;-77
2023/09/15 16:48:44;;;;;;;18.13;11.07;;;;;;;;;;10379009;28;20014;-81
2023/09/15 16:53:44;;;;;;;22.42;14.77;;;;;;;;;;10390666;28;20112;-84
2023/09/15 16:58:45;;;;;;;26.13;13.45;;;;;;;;;;10386196;28;20026;-79
2023/09/15 17:03:48;;;;;;;23.55;14.18;;;;;;;;;;10397067;28;20442;-77
2023/09/15 17:08:50;;;;;;;17.13;11.13;;;;;;;;;;10380312;28;20025;-71
2023/09/15 17:13:55;;;;;;;19.52;11.32;;;;;;;;;;10405223;28;20069;-78
2023/09/15 17:18:56;;;;;;;23.80;12.07;;;;;;;;;;10402351;28;20040;-72
2023/09/15 17:23:56;;;;;;;18.00;11.32;;;;;;;;;;10384007;28;20393;-79
2023/09/15 17:28:58;;;;;;;22.80;10.60;;;;;;;;;;10370534;28;20029;-76
2023/09/15 17:33:58;;;;;;;17.90;11.52;;;;;;;;;;10386579;28;20133;-82
2023/09/15 17:38:58;;;;;;;15.85;10.15;;;;;;;;;;10390547;28;21520;-78
2023/09/15 17:44:00;;;;;;;14.30;10.88;;;;;;;;;;10388636;28;20029;-80
2023/09/15 17:49:01;;;;;;;21.35;10.25;;;;;;;;;;10395716;28;20025;-81
2023/09/15 17:54:13;;;;;;;11.35;8.57;;;;;;;;;;10396818;28;20410;-79
2023/09/15 17:59:14;;;;;;;14.63;9.93;;;;;;;;;;10396785;28;20095;-77
2023/09/15 18:04:18;;;;;;;18.17;9.23;;;;;;;;;;10396965;28;20458;-83
2023/09/15 18:09:20;;;;;;;15.68;10.15;;;;;;;;;;10393522;28;20025;-78
2023/09/15 18:14:22;;;;;;;21.00;11.43;;;;;;;;;;10418052;28;20440;-80
2023/09/15 18:19:23;;;;;;;17.08;10.40;;;;;;;;;;10415576;28;20109;-83
2023/09/15 18:24:24;;;;;;;18.67;11.05;;;;;;;;;;10420721;28;20082;-83
2023/09/15 18:29:32;;;;;;;16.40;11.10;;;;;;;;;;10420638;28;20098;-81
2023/09/15 18:34:32;;;;;;;16.50;10.48;;;;;;;;;;10421102;28;20024;-79
2023/09/15 18:39:45;;;;;;;13.38;9.95;;;;;;;;;;10425839;28;20018;-88
2023/09/15 18:45:13;;;;;;;14.50;9.70;;;;;;;;;;10449615;28;20554;-72
2023/09/15 18:50:17;;;;;;;24.75;10.68;;;;;;;;;;10437501;28;20087;-77
2023/09/15 18:55:17;;;;;;;16.60;9.30;;;;;;;;;;10397344;28;20123;-77
2023/09/15 19:00:18;;;;;;;16.13;9.77;;;;;;;;;;10418111;28;20106;-76
2023/09/15 19:05:18;;;;;;;16.50;10.53;;;;;;;;;;10412525;28;20556;-77
2023/09/15 19:10:18;;;;;;;17.63;11.37;;;;;;;;;;10406000;28;20060;-75
2023/09/15 19:15:18;;;;;;;12.68;8.90;;;;;;;;;;10430672;28;20171;-77
2023/09/15 19:20:19;;;;;;;14.25;8.93;;;;;;;;;;10415984;28;20083;-75
2023/09/15 19:25:19;;;;;;;14.67;9.77;;;;;;;;;;10412627;28;20060;-75
2023/09/15 19:30:20;;;;;;;16.85;9.48;;;;;;;;;;10414079;28;20032;-81
2023/09/15 19:35:20;;;;;;;20.05;9.25;;;;;;;;;;10412219;28;20378;-79
2023/09/15 19:40:21;;;;;;;21.17;9.03;;;;;;;;;;10415081;28;20061;-76
2023/09/15 19:45:21;;;;;;;14.57;7.95;;;;;;;;;;10403292;28;20555;-76
2023/09/15 19:50:21;;;;;;;17.17;8.60;;;;;;;;;;10418787;28;20455;-77
2023/09/15 19:55:22;;;;;;;12.70;8.95;;;;;;;;;;10417330;28;20025;-79
2023/09/15 20:00:24;;;;;;;15.32;9.48;;;;;;;;;;10436859;28;20456;-76
2023/09/15 20:05:33;;;;;;;13.90;9.05;;;;;;;;;;10401716;28;20025;-75
2023/09/15 20:10:34;;;;;;;19.27;9.98;;;;;;;;;;10455752;28;20136;-75
2023/09/15 20:15:34;;;;;;;14.60;9.65;;;;;;;;;;10412719;28;20075;-82
2023/09/15 20:20:35;;;;;;;21.10;9.77;;;;;;;;;;10427425;28;20032;-77
2023/09/15 20:25:36;;;;;;;16.25;9.38;;;;;;;;;;10412679;28;20013;-76
2023/09/15 20:30:36;;;;;;;19.40;9.73;;;;;;;;;;10403829;28;20104;-76
2023/09/15 20:35:43;;;;;;;19.03;10.63;;;;;;;;;;10417876;28;20040;-80
2023/09/15 20:40:44;;;;;;;26.42;10.57;;;;;;;;;;10407312;28;20892;-78
2023/09/15 20:45:44;;;;;;;17.48;10.82;;;;;;;;;;10406260;28;20020;-79
2023/09/15 20:50:48;;;;;;;15.40;10.65;;;;;;;;;;10420202;28;20142;-77
2023/09/15 20:55:49;;;;;;;21.30;10.43;;;;;;;;;;10414603;28;20029;-76
2023/09/15 21:00:53;;;;;;;14.77;10.57;;;;;;;;;;10419689;28;20048;-82
2023/09/15 21:06:02;;;;;;;19.20;10.18;;;;;;;;;;10409310;28;21150;-80
2023/09/15 21:11:06;;;;;;;16.20;10.50;;;;;;;;;;10406232;28;20050;-82
2023/09/15 21:16:06;;;;;;;19.63;10.77;;;;;;;;;;10414098;28;20551;-75
2023/09/15 21:21:06;;;;;;;17.90;10.93;;;;;;;;;;10412309;28;20030;-77
2023/09/15 21:26:08;;;;;;;19.08;11.95;;;;;;;;;;10420296;28;20049;-75
2023/09/15 21:31:10;;;;;;;17.60;11.50;;;;;;;;;;10427208;28;20058;-80
2023/09/15 21:36:11;;;;;;;15.30;9.65;;;;;;;;;;10412490;28;20021;-78
2023/09/15 21:41:11;;;;;;;14.65;9.75;;;;;;;;;;10407947;28;20567;-73
2023/09/15 21:46:11;;;;;;;23.70;14.20;;;;;;;;;;10430534;28;20197;-75
2023/09/15 21:51:13;;;;;;;16.87;10.57;;;;;;;;;;10408294;28;20037;-81
2023/09/15 21:56:13;;;;;;;17.58;10.50;;;;;;;;;;10420963;28;20040;-73
2023/09/15 22:01:14;;;;;;;16.35;9.32;;;;;;;;;;10427965;28;20029;-81
2023/09/15 22:06:15;;;;;;;23.97;12.30;;;;;;;;;;10425432;28;20032;-74
2023/09/15 22:11:15;;;;;;;17.90;10.27;;;;;;;;;;10418484;28;20052;-77
2023/09/15 22:16:15;;;;;;;15.35;10.32;;;;;;;;;;10408349;28;20025;-79
2023/09/15 22:21:16;;;;;;;17.67;10.82;;;;;;;;;;10421901;28;20568;-75
2023/09/15 22:26:16;;;;;;;17.42;10.63;;;;;;;;;;10407985;28;20024;-79
2023/09/15 22:31:16;;;;;;;16.98;10.15;;;;;;;;;;10413870;28;20651;-77
2023/09/15 22:36:17;;;;;;;17.15;10.30;;;;;;;;;;10391443;28;20471;-75
2023/09/15 22:41:17;;;;;;;17.40;11.10;;;;;;;;;;10421814;28;20429;-75
2023/09/15 22:46:22;;;;;;;19.17;11.45;;;;;;;;;;10411339;28;20030;-74
2023/09/15 22:51:22;;;;;;;15.30;10.30;;;;;;;;;;10423262;28;20024;-72
2023/09/15 22:56:23;;;;;;;14.80;9.77;;;;;;;;;;10410277;28;20032;-82
2023/09/15 23:01:23;;;;;;;19.35;11.70;;;;;;;;;;10407839;28;20040;-75
2023/09/15 23:06:23;;;;;;;19.23;11.82;;;;;;;;;;10408404;28;20449;-76
2023/09/15 23:11:23;;;;;;;19.97;11.73;;;;;;;;;;10426188;28;20084;-78
2023/09/15 23:16:24;;;;;;;18.37;11.20;;;;;;;;;;10415132;28;20067;-77
2023/09/15 23:21:26;;;;;;;18.77;11.60;;;;;;;;;;10420617;28;20029;-74
2023/09/15 23:26:26;;;;;;;20.05;12.35;;;;;;;;;;10403273;28;20029;-76
2023/09/15 23:31:27;;;;;;;20.98;13.05;;;;;;;;;;10438023;28;20043;-81
2023/09/15 23:36:27;;;;;;;15.35;11.02;;;;;;;;;;10406448;28;20025;-81
2023/09/15 23:41:34;;;;;;;18.80;13.20;;;;;;;;;;10411635;28;20516;-80
2023/09/15 23:46:35;;;;;;;;;;;;;;;;;;10421076;28;20041;-79
2023/09/15 23:51:36;;;;;;;18.58;13.35;;;;;;;;;;10421315;28;20297;-75
2023/09/15 23:56:37;;;;;;;19.40;13.63;;;;;;;;;;10409620;28;20135;-79
